Time;durP1;ratioP1;P1;durP2;ratioP2;P2;SDS_P1;SDS_P2;PMS_P1;PMS_P2;Temp;Humidity;BMP_temperature;BMP_pressure;BME280_temperature;BME280_humidity;BME280_pressure;Samples;Min_cycle;Max_cycle;Signal;HPM_P1;HPM_P2
2022/06/20 00:00:47;;;;;;;7.60;1.92;;;18.50;81.60;;;;;;6266073;22;20590;-73
2022/06/20 00:03:28;;;;;;;8.63;2.10;;;18.50;82.10;;;;;;6265720;22;20762;-73
2022/06/20 00:05:55;;;;;;;3.78;1.90;;;18.30;81.40;;;;;;6267119;22;20115;-72
2022/06/20 00:08:21;;;;;;;6.90;2.00;;;18.20;82.30;;;;;;6264422;22;20019;-71
2022/06/20 00:10:48;;;;;;;7.05;1.80;;;18.20;83.30;;;;;;6265872;22;20113;-73
2022/06/20 00:13:22;;;;;;;3.30;2.25;;;18.10;84.00;;;;;;6265453;22;20137;-73
2022/06/20 00:15:50;;;;;;;4.47;1.70;;;18.00;84.20;;;;;;6267601;22;20012;-73
2022/06/20 00:18:17;;;;;;;4.90;2.05;;;18.00;85.10;;;;;;6266320;22;20027;-73
2022/06/20 00:20:43;;;;;;;4.53;2.00;;;18.00;85.10;;;;;;6264993;22;20446;-73
2022/06/20 00:23:10;;;;;;;5.75;1.95;;;18.00;85.90;;;;;;6277380;22;19995;-72
2022/06/20 00:25:37;;;;;;;4.25;1.55;;;18.00;86.40;;;;;;6267005;22;20034;-73
2022/06/20 00:28:04;;;;;;;3.83;1.70;;;17.90;86.60;;;;;;6277399;22;20003;-72
2022/06/20 00:30:30;;;;;;;4.00;2.17;;;17.90;86.70;;;;;;6266490;22;20018;-73
2022/06/20 00:32:56;;;;;;;4.65;2.17;;;17.90;87.00;;;;;;6266856;22;20050;-73
2022/06/20 00:35:22;;;;;;;6.63;2.17;;;17.90;87.40;;;;;;6266506;22;20888;-73
2022/06/20 00:37:48;;;;;;;4.85;1.73;;;18.00;87.30;;;;;;6277208;22;20015;-73
2022/06/20 00:40:29;;;;;;;10.40;2.55;;;17.90;87.30;;;;;;6265242;22;20007;-73
2022/06/20 00:42:57;;;;;;;4.90;2.17;;;17.90;88.20;;;;;;6277323;22;20004;-72
2022/06/20 00:45:25;;;;;;;9.25;2.80;;;17.90;87.00;;;;;;6266461;22;20004;-73
2022/06/20 00:47:55;;;;;;;4.70;2.70;;;17.90;87.90;;;;;;6266465;22;20318;-72
2022/06/20 00:50:31;;;;;;;8.30;2.30;;;17.90;88.00;;;;;;6264100;22;20015;-72
2022/06/20 00:53:06;;;;;;;5.43;1.83;;;17.90;87.50;;;;;;6267209;22;20046;-73
2022/06/20 00:55:53;;;;;;;5.57;1.88;;;17.80;87.40;;;;;;6267048;22;20007;-73
2022/06/20 00:58:27;;;;;;;;;;;17.90;87.30;;;;;;6266782;22;20014;-73
2022/06/20 01:00:55;;;;;;;4.70;1.60;;;17.90;87.20;;;;;;6275980;22;19903;-73
2022/06/20 01:03:26;;;;;;;4.55;2.33;;;17.80;87.60;;;;;;6276759;22;20027;-73
2022/06/20 01:06:07;;;;;;;6.60;1.83;;;17.80;86.90;;;;;;6267111;22;20442;-73
2022/06/20 01:08:37;;;;;;;6.75;1.88;;;17.70;87.10;;;;;;6276022;22;20018;-72
2022/06/20 01:11:16;;;;;;;6.25;1.95;;;17.70;88.70;;;;;;6276350;22;20017;-73
2022/06/20 01:13:43;;;;;;;5.40;1.80;;;17.70;88.80;;;;;;6264459;22;20072;-73
2022/06/20 01:16:15;;;;;;;4.78;2.03;;;17.70;89.10;;;;;;6264674;22;20019;-73
2022/06/20 01:18:43;;;;;;;4.78;2.20;;;17.70;89.30;;;;;;6265416;22;20008;-73
2022/06/20 01:21:15;;;;;;;5.25;2.22;;;17.70;89.40;;;;;;6265731;22;20042;-73
2022/06/20 01:23:55;;;;;;;2.88;1.65;;;17.60;89.50;;;;;;6264222;22;20015;-73
2022/06/20 01:26:42;;;;;;;7.13;2.50;;;17.60;89.40;;;;;;6266161;22;20441;-73
2022/06/20 01:29:11;;;;;;;6.57;2.40;;;17.50;89.90;;;;;;6266346;22;20008;-73
2022/06/20 01:31:44;;;;;;;5.57;1.70;;;17.60;90.00;;;;;;6275337;22;20015;-73
2022/06/20 01:34:14;;;;;;;6.65;2.10;;;17.50;89.80;;;;;;6264861;22;20090;-73
2022/06/20 01:39:26;;;;;;;4.20;1.75;;;17.40;89.70;;;;;;6276568;22;20098;-72
2022/06/20 01:44:41;;;;;;;6.70;2.45;;;17.30;90.20;;;;;;6266799;22;20023;-73
2022/06/20 01:47:08;;;;;;;6.45;2.63;;;17.30;90.30;;;;;;6265922;22;20225;-73
2022/06/20 01:49:35;;;;;;;5.88;2.38;;;17.30;90.40;;;;;;6276479;22;20010;-73
2022/06/20 01:52:15;;;;;;;6.70;2.35;;;17.30;90.60;;;;;;6266772;22;20061;-73
2022/06/20 01:54:56;;;;;;;6.10;2.22;;;17.30;90.80;;;;;;6276158;22;20014;-73
2022/06/20 01:57:23;;;;;;;4.82;1.80;;;17.30;90.80;;;;;;6265893;22;20019;-72
2022/06/20 02:00:07;;;;;;;6.03;1.98;;;17.30;90.70;;;;;;6265785;22;20007;-73
2022/06/20 02:02:38;;;;;;;3.58;1.80;;;17.30;90.80;;;;;;6265884;22;20004;-73
2022/06/20 02:05:09;;;;;;;5.85;2.53;;;17.30;90.60;;;;;;6266234;22;20384;-73
2022/06/20 02:07:35;;;;;;;7.43;2.10;;;17.30;90.60;;;;;;6265651;22;20536;-73
2022/06/20 02:10:04;;;;;;;5.85;2.28;;;17.30;90.50;;;;;;6265413;22;20019;-73
2022/06/20 02:12:32;;;;;;;3.65;1.73;;;17.30;90.60;;;;;;6265482;22;20012;-73
2022/06/20 02:14:59;;;;;;;7.00;2.03;;;17.30;90.50;;;;;;6275899;22;20801;-73
2022/06/20 02:17:41;;;;;;;7.03;2.00;;;17.30;90.40;;;;;;6265445;22;20019;-72
2022/06/20 02:20:14;;;;;;;3.25;1.60;;;17.30;90.50;;;;;;6264915;22;20008;-73
2022/06/20 02:22:43;;;;;;;5.00;2.33;;;17.30;90.40;;;;;;6265629;22;20011;-73
2022/06/20 02:25:14;;;;;;;5.00;2.05;;;17.30;90.50;;;;;;6265894;22;20488;-73
2022/06/20 02:27:48;;;;;;;5.05;2.00;;;17.30;90.40;;;;;;6276094;22;20008;-73
2022/06/20 02:30:14;;;;;;;6.28;1.90;;;17.30;90.40;;;;;;6265368;22;20008;-73
2022/06/20 02:32:44;;;;;;;5.40;1.70;;;17.20;90.50;;;;;;6265592;22;20015;-72
2022/06/20 02:35:15;;;;;;;7.95;2.15;;;17.10;90.70;;;;;;6266152;22;20306;-73
2022/06/20 02:37:41;;;;;;;6.78;2.25;;;17.10;90.60;;;;;;6265633;22;20041;-73
2022/06/20 02:40:14;;;;;;;5.55;2.00;;;17.10;90.80;;;;;;6275199;22;20019;-73
2022/06/20 02:42:46;;;;;;;3.70;2.15;;;17.10;90.90;;;;;;6266180;22;20073;-73
2022/06/20 02:45:12;;;;;;;4.03;1.73;;;17.10;90.90;;;;;;6265355;22;20019;-73
2022/06/20 02:47:41;;;;;;;3.85;2.13;;;17.10;91.00;;;;;;6265746;22;20016;-72
2022/06/20 02:50:10;;;;;;;4.28;2.08;;;17.10;91.00;;;;;;6265305;22;20035;-72
2022/06/20 02:52:48;;;;;;;5.70;2.38;;;17.10;90.40;;;;;;6265152;22;20070;-73
2022/06/20 02:55:16;;;;;;;4.55;1.90;;;17.10;90.70;;;;;;6265443;22;20015;-73
2022/06/20 02:57:49;;;;;;;7.35;2.30;;;17.10;90.80;;;;;;6275774;22;20128;-73
2022/06/20 03:00:18;;;;;;;5.00;2.28;;;17.10;90.90;;;;;;6262831;22;20092;-73
2022/06/20 03:02:54;;;;;;;7.00;2.30;;;17.10;90.90;;;;;;6265299;22;20090;-73
2022/06/20 03:05:20;;;;;;;4.22;2.17;;;17.10;90.90;;;;;;6275758;22;20004;-73
2022/06/20 03:07:49;;;;;;;7.90;2.78;;;17.20;90.90;;;;;;6264973;22;20015;-73
2022/06/20 03:10:20;;;;;;;7.30;2.63;;;17.10;90.70;;;;;;6275601;22;20441;-73
2022/06/20 03:12:46;;;;;;;4.95;2.05;;;17.10;90.50;;;;;;6265560;22;20015;-73
2022/06/20 03:15:13;;;;;;;5.38;2.30;;;17.00;90.70;;;;;;6264941;22;20065;-73
2022/06/20 03:17:41;;;;;;;6.95;2.28;;;17.00;90.90;;;;;;6265361;22;20720;-73
2022/06/20 03:20:13;;;;;;;4.10;1.90;;;17.10;91.10;;;;;;6275151;22;20008;-73
2022/06/20 03:22:46;;;;;;;4.97;2.42;;;17.00;91.00;;;;;;6265136;22;20098;-73
2022/06/20 03:25:14;;;;;;;3.58;1.90;;;17.10;90.90;;;;;;6275604;22;20014;-73
2022/06/20 03:27:41;;;;;;;5.70;2.55;;;17.00;91.00;;;;;;6265670;22;20004;-73
2022/06/20 03:30:28;;;;;;;7.25;2.38;;;17.10;90.80;;;;;;6264480;22;20069;-73
2022/06/20 03:32:55;;;;;;;4.97;2.28;;;17.00;90.50;;;;;;6278207;22;20007;-72
2022/06/20 03:35:21;;;;;;;5.63;2.40;;;17.00;90.50;;;;;;6267652;22;20046;-73
2022/06/20 03:37:47;;;;;;;4.18;2.50;;;16.90;90.20;;;;;;6264920;22;20027;-73
2022/06/20 03:40:15;;;;;;;5.05;2.10;;;16.90;90.70;;;;;;6267162;22;20052;-73
2022/06/20 03:42:41;;;;;;;6.35;2.25;;;16.90;91.00;;;;;;6267055;22;20169;-73
2022/06/20 03:45:08;;;;;;;7.07;2.10;;;16.90;91.10;;;;;;6267156;22;20787;-73
2022/06/20 03:47:52;;;;;;;6.03;2.10;;;16.90;91.10;;;;;;6267258;22;20129;-72
2022/06/20 03:50:35;;;;;;;7.00;2.28;;;17.00;91.20;;;;;;6266982;22;20011;-73
2022/06/20 03:53:23;;;;;;;6.47;2.72;;;17.10;91.10;;;;;;6266620;22;20034;-73
2022/06/20 03:56:31;;;;;;;5.93;2.72;;;17.10;91.00;;;;;;6277752;22;20035;-73
2022/06/20 03:59:13;;;;;;;7.00;2.55;;;17.10;91.00;;;;;;6263882;22;20015;-73
2022/06/20 04:01:52;;;;;;;5.82;2.92;;;17.20;91.30;;;;;;6267230;22;20081;-73
2022/06/20 04:04:24;;;;;;;6.97;2.72;;;17.10;90.90;;;;;;6266751;22;20011;-73
2022/06/20 04:07:03;;;;;;;5.00;2.33;;;17.10;90.80;;;;;;6266906;22;20011;-73
2022/06/20 04:12:35;;;;;;;6.25;3.03;;;17.10;91.20;;;;;;6266812;22;20098;-73
2022/06/20 04:15:28;;;;;;;9.50;3.88;;;17.20;91.40;;;;;;6239138;22;20012;-73
2022/06/20 04:20:57;;;;;;;6.80;3.10;;;17.30;91.10;;;;;;6266359;22;20012;-73
2022/06/20 04:23:39;;;;;;;4.93;2.97;;;17.40;91.30;;;;;;6266849;22;20007;-72
2022/06/20 04:26:29;;;;;;;7.55;3.78;;;17.40;91.10;;;;;;6277140;22;20721;-73
2022/06/20 04:29:13;;;;;;;10.45;3.65;;;17.50;91.30;;;;;;6266384;22;20019;-73
2022/06/20 04:31:50;;;;;;;7.55;3.30;;;17.60;91.20;;;;;;6276454;22;20073;-73
2022/06/20 04:34:34;;;;;;;11.30;3.53;;;17.50;91.10;;;;;;6277233;22;20004;-72
2022/06/20 04:37:18;;;;;;;7.55;3.15;;;17.50;91.20;;;;;;6266130;22;20087;-73
2022/06/20 04:40:04;;;;;;;6.10;3.03;;;17.50;91.30;;;;;;6266528;22;20091;-72
2022/06/20 04:42:51;;;;;;;6.60;3.20;;;17.50;91.50;;;;;;6266801;22;20014;-72
2022/06/20 04:45:34;;;;;;;8.35;4.00;;;17.30;91.60;;;;;;6266656;22;20008;-72
2022/06/20 04:48:21;;;;;;;6.00;3.25;;;17.30;92.00;;;;;;6265653;22;20642;-73
2022/06/20 04:50:53;;;;;;;7.70;3.13;;;17.30;92.00;;;;;;6266162;22;20759;-73
2022/06/20 04:53:28;;;;;;;9.02;3.65;;;17.30;92.10;;;;;;6266603;22;20085;-73
2022/06/20 04:55:57;;;;;;;6.45;3.78;;;17.30;92.20;;;;;;6266918;22;20524;-72
2022/06/20 04:58:28;;;;;;;6.63;3.75;;;17.30;92.20;;;;;;6266550;22;20061;-73
2022/06/20 05:00:55;;;;;;;7.85;3.85;;;17.30;92.50;;;;;;6276676;22;20008;-73
2022/06/20 05:03:27;;;;;;;8.15;3.65;;;17.30;92.60;;;;;;6277288;22;20011;-73
2022/06/20 05:05:56;;;;;;;9.38;4.00;;;17.30;92.70;;;;;;6276195;22;20004;-72
2022/06/20 05:08:28;;;;;;;11.73;4.63;;;17.30;92.80;;;;;;6266346;22;20011;-73
2022/06/20 05:11:18;;;;;;;10.43;4.72;;;17.30;92.80;;;;;;6276359;22;20012;-72
2022/06/20 05:13:48;;;;;;;16.52;4.93;;;17.30;93.00;;;;;;6275700;22;20015;-73
2022/06/20 05:16:26;;;;;;;6.30;3.70;;;17.30;93.00;;;;;;6266461;22;20023;-73
2022/06/20 05:18:59;;;;;;;14.77;4.75;;;17.30;93.00;;;;;;6266392;22;20042;-73
2022/06/20 05:21:32;;;;;;;8.18;3.90;;;17.30;93.30;;;;;;6264630;22;20011;-72
2022/06/20 05:24:03;;;;;;;9.10;3.28;;;17.20;93.30;;;;;;6266638;22;20004;-73
2022/06/20 05:26:34;;;;;;;7.50;3.90;;;17.20;93.40;;;;;;6266775;22;20037;-72
2022/06/20 05:29:07;;;;;;;7.90;3.75;;;17.20;93.40;;;;;;6266237;22;20016;-72
2022/06/20 05:31:41;;;;;;;7.22;3.70;;;17.20;93.30;;;;;;6264497;22;20043;-73
2022/06/20 05:34:14;;;;;;;6.88;3.10;;;17.10;93.00;;;;;;6276315;22;20061;-72
2022/06/20 05:36:49;;;;;;;5.78;3.40;;;17.10;93.10;;;;;;6266407;22;20086;-73
2022/06/20 05:39:27;;;;;;;6.55;2.92;;;17.10;93.20;;;;;;6266301;22;20057;-73
2022/06/20 05:41:53;;;;;;;4.75;3.13;;;17.00;93.30;;;;;;6266243;22;20011;-72
2022/06/20 05:44:19;;;;;;;11.13;3.90;;;17.00;93.30;;;;;;6266231;22;20014;-73
2022/06/20 05:47:00;;;;;;;10.77;3.38;;;17.00;93.40;;;;;;6266863;22;20011;-73
2022/06/20 05:49:33;;;;;;;9.38;4.03;;;17.00;93.60;;;;;;6265484;22;20318;-73
2022/06/20 05:52:00;;;;;;;7.10;2.92;;;17.00;93.30;;;;;;6266528;22;20021;-73
2022/06/20 05:54:35;;;;;;;4.35;2.92;;;16.90;93.20;;;;;;6276218;22;20019;-73
2022/06/20 05:57:13;;;;;;;6.30;2.92;;;16.90;93.50;;;;;;6265591;22;20094;-73
2022/06/20 05:59:44;;;;;;;9.30;3.10;;;16.80;93.70;;;;;;6265926;22;20031;-73
2022/06/20 06:02:34;;;;;;;6.50;3.00;;;16.70;94.00;;;;;;6266377;22;20014;-73
2022/06/20 06:05:39;;;;;;;9.00;4.00;;;16.70;94.20;;;;;;6265746;22;20008;-72
2022/06/20 06:08:56;;;;;;;7.10;2.83;;;16.70;94.30;;;;;;6265278;22;20115;-73
2022/06/20 06:11:40;;;;;;;8.23;2.83;;;16.70;93.80;;;;;;6240665;22;20471;-73
2022/06/20 06:14:22;;;;;;;5.65;2.58;;;16.60;93.90;;;;;;6276259;22;20015;-73
2022/06/20 06:16:55;;;;;;;5.20;2.17;;;16.50;93.30;;;;;;6266109;22;20016;-72
2022/06/20 06:19:40;;;;;;;4.90;2.40;;;16.50;93.40;;;;;;6265524;22;20038;-73
2022/06/20 06:22:12;;;;;;;3.15;2.15;;;16.50;93.70;;;;;;6276631;22;20087;-73
2022/06/20 06:24:42;;;;;;;3.72;2.33;;;16.50;93.90;;;;;;6266166;22;20007;-73
2022/06/20 06:27:12;;;;;;;4.95;2.70;;;16.60;94.10;;;;;;6265557;22;20003;-73
2022/06/20 06:29:38;;;;;;;4.30;2.20;;;16.70;94.30;;;;;;6265863;22;20003;-73
2022/06/20 06:32:23;;;;;;;5.15;2.78;;;16.80;94.10;;;;;;6266568;22;20004;-73
2022/06/20 06:35:13;;;;;;;5.85;2.70;;;16.90;94.10;;;;;;6265689;22;20018;-73
2022/06/20 06:38:03;;;;;;;6.03;2.53;;;17.00;94.00;;;;;;6264222;22;20019;-73
2022/06/20 06:40:37;;;;;;;5.95;2.63;;;17.10;94.00;;;;;;6263453;22;20576;-72
2022/06/20 06:43:19;;;;;;;8.73;3.05;;;17.10;93.70;;;;;;6264922;22;20023;-73
2022/06/20 06:45:46;;;;;;;10.85;3.17;;;17.20;93.40;;;;;;6275293;22;20565;-73
2022/06/20 06:48:22;;;;;;;3.72;2.55;;;17.20;93.20;;;;;;6265382;22;20018;-72
2022/06/20 06:50:56;;;;;;;5.55;2.88;;;17.30;93.50;;;;;;6264442;22;20046;-72
2022/06/20 06:53:32;;;;;;;6.57;2.80;;;17.30;93.50;;;;;;6264936;22;20012;-73
2022/06/20 06:56:09;;;;;;;9.98;3.42;;;17.30;93.50;;;;;;6265649;22;20011;-73
2022/06/20 06:58:44;;;;;;;6.50;3.03;;;17.40;93.10;;;;;;6275751;22;20012;-74
2022/06/20 07:01:16;;;;;;;5.90;3.13;;;17.30;92.60;;;;;;6265383;22;20011;-72
2022/06/20 07:03:45;;;;;;;7.25;3.17;;;17.30;92.50;;;;;;6265934;22;20003;-72
2022/06/20 07:06:18;;;;;;;6.78;3.30;;;17.30;92.50;;;;;;6265243;22;20010;-73
2022/06/20 07:08:52;;;;;;;7.93;3.55;;;17.30;92.90;;;;;;6265689;22;20016;-73
2022/06/20 07:11:23;;;;;;;6.43;3.08;;;17.30;92.80;;;;;;6275187;22;20011;-73
2022/06/20 07:14:09;;;;;;;8.20;3.90;;;17.30;93.10;;;;;;6263931;22;20479;-72
2022/06/20 07:17:24;;;;;;;6.13;3.50;;;17.40;92.20;;;;;;6265440;22;20480;-70
2022/06/20 07:19:51;;;;;;;4.93;3.47;;;17.30;92.40;;;;;;6259757;22;20352;-72
2022/06/20 07:22:20;;;;;;;7.57;3.30;;;17.40;92.60;;;;;;6265330;22;20456;-72
2022/06/20 07:24:47;;;;;;;6.28;3.50;;;17.40;92.40;;;;;;6266161;22;20019;-73
2022/06/20 07:27:37;;;;;;;8.18;3.38;;;17.40;92.50;;;;;;6262903;22;20106;-71
2022/06/20 07:30:13;;;;;;;12.48;6.22;;;17.40;92.90;;;;;;6265442;22;20015;-72
2022/06/20 07:32:48;;;;;;;12.18;6.32;;;17.50;93.20;;;;;;6265480;22;20445;-72
2022/06/20 07:35:23;;;;;;;10.10;5.03;;;17.50;92.80;;;;;;6275043;22;20018;-69
2022/06/20 07:38:00;;;;;;;5.40;3.63;;;17.50;92.60;;;;;;6276110;22;20723;-73
2022/06/20 07:40:44;;;;;;;6.65;3.53;;;17.50;92.70;;;;;;6262342;22;20086;-72
2022/06/20 07:43:25;;;;;;;7.63;4.00;;;17.50;92.60;;;;;;6265493;22;20085;-74
2022/06/20 07:45:53;;;;;;;5.05;3.75;;;17.50;92.70;;;;;;6275405;22;20454;-72
2022/06/20 07:48:33;;;;;;;6.20;4.03;;;17.50;92.50;;;;;;6263211;22;20357;-72
2022/06/20 07:51:02;;;;;;;6.30;3.80;;;17.40;92.60;;;;;;6265479;22;20004;-72
2022/06/20 07:53:42;;;;;;;7.45;3.60;;;17.40;92.60;;;;;;6265792;22;20684;-72
2022/06/20 07:56:37;;;;;;;7.85;4.32;;;17.40;93.30;;;;;;6274737;22;20461;-71
2022/06/20 07:59:33;;;;;;;5.10;3.83;;;17.40;93.30;;;;;;6259447;22;20345;-72
2022/06/20 08:02:32;;;;;;;4.88;3.30;;;17.40;93.10;;;;;;6265153;22;20007;-72
2022/06/20 08:05:00;;;;;;;8.35;4.40;;;17.30;93.20;;;;;;6257776;22;20012;-71
2022/06/20 08:07:35;;;;;;;4.93;3.55;;;17.30;93.10;;;;;;6264796;22;20008;-72
2022/06/20 08:10:05;;;;;;;7.05;3.88;;;17.30;93.00;;;;;;6263319;22;20041;-72
2022/06/20 08:12:44;;;;;;;4.97;3.67;;;17.30;93.20;;;;;;6275517;22;20007;-71
2022/06/20 08:15:17;;;;;;;8.20;4.55;;;17.40;93.20;;;;;;6274776;22;20094;-73
2022/06/20 08:17:43;;;;;;;6.57;4.22;;;17.40;93.40;;;;;;6271929;22;20007;-72
2022/06/20 08:20:11;;;;;;;8.20;5.03;;;17.50;93.60;;;;;;6265328;22;20318;-73
2022/06/20 08:22:55;;;;;;;8.00;4.45;;;17.60;93.90;;;;;;6267045;22;20016;-73
2022/06/20 08:25:35;;;;;;;7.75;5.05;;;17.80;94.20;;;;;;6266998;22;20061;-73
2022/06/20 08:28:16;;;;;;;9.57;5.57;;;17.90;94.10;;;;;;6277436;22;20114;-73
2022/06/20 08:30:54;;;;;;;7.25;4.60;;;18.00;93.90;;;;;;6277186;22;20015;-73
2022/06/20 08:33:31;;;;;;;9.30;5.38;;;17.90;93.60;;;;;;6266485;22;20035;-73
2022/06/20 08:36:13;;;;;;;9.05;5.93;;;17.90;93.50;;;;;;6266275;22;20023;-74
2022/06/20 08:39:06;;;;;;;7.47;4.72;;;17.90;93.30;;;;;;6274637;22;20007;-75
2022/06/20 08:41:31;;;;;;;7.85;4.25;;;17.90;93.20;;;;;;6276156;22;20010;-74
2022/06/20 08:44:24;;;;;;;7.72;3.65;;;17.80;93.10;;;;;;6266519;22;20011;-74
2022/06/20 08:47:14;;;;;;;8.40;4.05;;;17.80;93.10;;;;;;6266112;22;20152;-75
2022/06/20 08:50:01;;;;;;;7.35;3.90;;;17.80;92.90;;;;;;6266594;22;20823;-74
2022/06/20 08:52:57;;;;;;;5.80;4.35;;;17.80;92.70;;;;;;6266778;22;20369;-75
2022/06/20 08:55:40;;;;;;;6.78;3.80;;;17.70;93.00;;;;;;6265666;22;20008;-75
2022/06/20 08:58:21;;;;;;;6.05;3.92;;;17.60;92.80;;;;;;6276412;22;20008;-74
2022/06/20 09:01:11;;;;;;;6.32;4.43;;;17.60;92.90;;;;;;6265486;22;20086;-74
2022/06/20 09:03:40;;;;;;;6.75;3.95;;;17.70;93.00;;;;;;6261661;22;20008;-74
2022/06/20 09:06:11;;;;;;;6.20;3.92;;;17.60;92.90;;;;;;6265853;22;20007;-74
2022/06/20 09:09:08;;;;;;;5.85;3.90;;;17.60;93.00;;;;;;6266234;22;20110;-74
2022/06/20 09:12:12;;;;;;;5.75;3.60;;;17.50;92.80;;;;;;6265400;22;20038;-74
2022/06/20 09:15:08;;;;;;;6.05;3.00;;;17.50;92.90;;;;;;6256296;22;20071;-75
2022/06/20 09:17:44;;;;;;;6.20;4.07;;;17.40;92.90;;;;;;6264700;22;20022;-75
2022/06/20 09:20:17;;;;;;;8.43;4.60;;;17.50;93.20;;;;;;6275235;22;20012;-74
2022/06/20 09:22:45;;;;;;;6.07;3.97;;;17.50;93.40;;;;;;6275956;22;20062;-75
2022/06/20 09:25:48;;;;;;;8.23;4.60;;;17.60;93.60;;;;;;6265215;22;20529;-75
2022/06/20 09:28:48;;;;;;;7.35;3.92;;;17.60;93.40;;;;;;6264020;22;20038;-74
2022/06/20 09:31:51;;;;;;;5.18;4.28;;;17.50;93.10;;;;;;6265383;22;20069;-74
2022/06/20 09:34:53;;;;;;;6.47;4.25;;;17.50;93.00;;;;;;6265374;22;20020;-74
2022/06/20 09:37:50;;;;;;;5.70;3.42;;;17.40;93.20;;;;;;6264854;22;20008;-75
2022/06/20 09:40:30;;;;;;;7.63;4.50;;;17.50;93.20;;;;;;6263980;22;20010;-74
2022/06/20 09:43:11;;;;;;;8.85;4.85;;;17.50;93.10;;;;;;6275782;22;20380;-74
2022/06/20 09:46:15;;;;;;;8.70;4.40;;;17.50;93.30;;;;;;6265374;22;20008;-74
2022/06/20 09:49:02;;;;;;;10.00;4.45;;;17.50;93.50;;;;;;6275168;22;20011;-74
2022/06/20 09:51:43;;;;;;;6.47;3.75;;;17.50;93.60;;;;;;6262973;22;20579;-74
2022/06/20 09:54:25;;;;;;;5.97;4.15;;;17.40;93.60;;;;;;6275969;22;20022;-74
2022/06/20 09:57:30;;;;;;;7.53;4.28;;;17.40;93.90;;;;;;6275628;22;20516;-76
2022/06/20 09:59:59;;;;;;;5.32;3.95;;;17.40;94.10;;;;;;6265217;22;20003;-76
2022/06/20 10:02:40;;;;;;;6.07;3.50;;;17.40;93.90;;;;;;6275240;22;20004;-75
2022/06/20 10:05:27;;;;;;;6.82;4.68;;;17.40;93.50;;;;;;6265668;22;20004;-75
2022/06/20 10:08:06;;;;;;;7.53;4.18;;;17.40;93.50;;;;;;6265202;22;20007;-75
2022/06/20 10:11:07;;;;;;;6.68;4.68;;;17.40;93.50;;;;;;6264891;22;20039;-75
2022/06/20 10:14:14;;;;;;;8.65;4.97;;;17.40;93.70;;;;;;6239598;22;20026;-75
2022/06/20 10:17:10;;;;;;;8.60;4.85;;;17.40;93.30;;;;;;6243903;22;20334;-75
2022/06/20 10:19:52;;;;;;;4.50;3.90;;;17.40;93.50;;;;;;6265266;22;20012;-75
2022/06/20 10:22:35;;;;;;;7.55;4.57;;;17.40;93.70;;;;;;6261663;22;20396;-75
2022/06/20 10:25:19;;;;;;;9.15;5.15;;;17.50;93.80;;;;;;6264128;22;20459;-75
2022/06/20 10:27:51;;;;;;;7.10;4.57;;;17.50;93.70;;;;;;6264913;22;20104;-75
2022/06/20 10:30:32;;;;;;;10.82;5.25;;;17.50;93.60;;;;;;6275184;22;20011;-75
2022/06/20 10:33:27;;;;;;;8.57;4.38;;;17.40;93.70;;;;;;6275464;22;20012;-75
2022/06/20 10:36:08;;;;;;;7.43;5.00;;;17.40;93.90;;;;;;6265727;22;20041;-75
2022/06/20 10:38:40;;;;;;;6.22;4.53;;;17.40;93.90;;;;;;6274301;22;20008;-75
2022/06/20 10:41:06;;;;;;;7.50;4.03;;;17.40;93.90;;;;;;6263829;22;20011;-74
2022/06/20 10:43:52;;;;;;;5.07;3.42;;;17.30;93.80;;;;;;6263368;22;20018;-74
2022/06/20 10:46:26;;;;;;;6.30;3.78;;;17.30;93.90;;;;;;6231370;22;20189;-76
2022/06/20 10:49:16;;;;;;;6.32;4.18;;;17.30;94.00;;;;;;6264377;22;20500;-74
2022/06/20 10:51:57;;;;;;;6.28;3.80;;;17.30;94.20;;;;;;6262265;22;20796;-74
2022/06/20 10:54:34;;;;;;;6.78;4.30;;;17.40;94.30;;;;;;6237557;22;20638;-74
2022/06/20 10:57:00;;;;;;;5.57;3.75;;;17.40;94.10;;;;;;6275281;22;20011;-75
2022/06/20 10:59:46;;;;;;;7.05;3.88;;;17.40;94.30;;;;;;6264778;22;20782;-77
2022/06/20 11:02:45;;;;;;;4.47;3.83;;;17.40;94.40;;;;;;6276234;22;20066;-76
2022/06/20 11:05:48;;;;;;;3.92;3.15;;;17.40;94.40;;;;;;6265676;22;20008;-76
2022/06/20 11:08:42;;;;;;;6.63;3.85;;;17.40;94.30;;;;;;6265055;22;20011;-76
2022/06/20 11:11:12;;;;;;;5.20;3.28;;;17.40;94.10;;;;;;6264567;22;20499;-78
2022/06/20 11:14:09;;;;;;;4.63;3.20;;;17.40;94.00;;;;;;6264329;22;20015;-77
2022/06/20 11:16:52;;;;;;;6.03;3.17;;;17.40;94.10;;;;;;6124269;22;20072;-89
2022/06/20 11:32:53;;;;;;;2.90;2.38;;;17.40;94.30;;;;;;6036001;23;20961;-73
2022/06/20 11:35:44;;;;;;;2.88;2.50;;;17.40;94.40;;;;;;6105235;23;20477;-76
2022/06/20 11:38:17;;;;;;;4.03;2.33;;;17.40;94.00;;;;;;6108121;23;20117;-78
2022/06/20 11:41:05;;;;;;;4.60;2.45;;;17.40;94.10;;;;;;6110524;23;20006;-77
2022/06/20 11:44:08;;;;;;;4.18;2.75;;;17.50;94.10;;;;;;6174602;22;20012;-77
2022/06/20 11:47:00;;;;;;;3.83;2.40;;;17.50;94.20;;;;;;6266022;22;20023;-78
2022/06/20 11:49:44;;;;;;;1.75;1.55;;;17.50;94.00;;;;;;6263553;22;20045;-72
2022/06/20 11:52:38;;;;;;;1.92;1.70;;;17.50;93.70;;;;;;6264249;22;20022;-72
2022/06/20 11:55:45;;;;;;;2.00;1.40;;;17.40;93.50;;;;;;6266580;22;20368;-72
2022/06/20 11:58:23;;;;;;;2.42;1.20;;;17.40;93.60;;;;;;6264447;22;20011;-73
2022/06/20 12:00:55;;;;;;;3.35;1.38;;;17.40;93.40;;;;;;6275786;22;20004;-73
2022/06/20 12:03:35;;;;;;;2.10;1.35;;;17.30;93.30;;;;;;6267059;22;20035;-81
2022/06/20 12:06:27;;;;;;;2.15;1.38;;;17.20;93.20;;;;;;6266430;22;20004;-70
2022/06/20 12:09:04;;;;;;;1.35;1.25;;;17.20;93.30;;;;;;6237695;22;20007;-74
2022/06/20 12:11:29;;;;;;;2.22;1.40;;;17.20;93.30;;;;;;6265315;22;20078;-74
2022/06/20 12:14:21;;;;;;;2.15;1.40;;;17.20;93.10;;;;;;6264620;22;20036;-75
2022/06/20 12:17:24;;;;;;;1.33;1.20;;;17.20;93.00;;;;;;6266956;22;20144;-74
2022/06/20 12:25:51;;;;;;;1.45;0.70;;;17.10;92.20;;;;;;6265286;22;20015;-76
2022/06/20 12:28:32;;;;;;;1.30;0.85;;;17.00;91.70;;;;;;6265424;22;20003;-75
2022/06/20 12:31:16;;;;;;;2.35;1.20;;;16.90;91.60;;;;;;6275708;22;20142;-75
2022/06/20 12:33:54;;;;;;;2.80;0.98;;;16.90;92.00;;;;;;6266612;22;20067;-75
2022/06/20 12:36:42;;;;;;;1.33;1.23;;;16.90;92.20;;;;;;6264775;22;20014;-75
2022/06/20 12:39:15;;;;;;;1.92;1.27;;;16.90;92.30;;;;;;6265741;22;20012;-77
2022/06/20 12:41:44;;;;;;;4.88;1.40;;;17.00;92.40;;;;;;6265346;22;20449;-75
2022/06/20 12:44:39;;;;;;;1.88;1.40;;;17.00;92.30;;;;;;6265239;22;20011;-75
2022/06/20 12:47:36;;;;;;;1.70;1.48;;;17.00;91.90;;;;;;6273434;22;20019;-75
2022/06/20 12:50:10;;;;;;;1.77;1.17;;;16.90;92.30;;;;;;6273708;22;20036;-75
2022/06/20 12:53:10;;;;;;;1.45;1.30;;;16.90;92.50;;;;;;6265611;22;20042;-75
2022/06/20 12:56:24;;;;;;;1.60;1.08;;;17.00;92.60;;;;;;6262760;22;20073;-77
2022/06/20 12:59:13;;;;;;;1.08;0.98;;;17.00;92.50;;;;;;6228583;22;20022;-76
2022/06/20 13:01:54;;;;;;;1.00;0.90;;;16.90;92.20;;;;;;6263613;22;20061;-75
2022/06/20 13:04:26;;;;;;;2.40;0.88;;;16.90;92.30;;;;;;6264208;22;20060;-76
2022/06/20 13:07:16;;;;;;;6.00;2.13;;;17.00;92.50;;;;;;6273886;22;20004;-76
2022/06/20 13:09:48;;;;;;;2.45;1.60;;;17.10;92.10;;;;;;6263245;22;20015;-77
2022/06/20 13:12:35;;;;;;;3.13;1.70;;;17.10;92.60;;;;;;6262561;22;20004;-79
2022/06/20 13:15:39;;;;;;;2.97;1.55;;;17.00;92.40;;;;;;6266209;22;20008;-77
2022/06/20 13:18:22;;;;;;;1.70;1.60;;;17.00;92.30;;;;;;6265201;22;20012;-77
2022/06/20 13:21:15;;;;;;;2.13;1.88;;;17.00;92.60;;;;;;6265029;22;20404;-77
2022/06/20 13:23:49;;;;;;;2.70;1.80;;;17.10;92.70;;;;;;6265990;22;20459;-76
2022/06/20 13:26:41;;;;;;;2.30;2.10;;;17.10;92.80;;;;;;6265971;22;20009;-76
2022/06/20 13:29:35;;;;;;;4.95;2.20;;;17.20;92.70;;;;;;6263631;22;20008;-76
2022/06/20 13:32:32;;;;;;;2.47;2.25;;;17.30;92.70;;;;;;6265643;22;20152;-76
2022/06/20 13:35:17;;;;;;;5.45;2.95;;;17.30;92.80;;;;;;6264761;22;20027;-79
2022/06/20 13:37:59;;;;;;;4.15;2.67;;;17.40;92.00;;;;;;6265696;22;20057;-72
2022/06/20 13:40:59;;;;;;;4.38;3.20;;;17.40;92.40;;;;;;6264680;22;20004;-80
2022/06/20 13:43:49;;;;;;;3.17;2.88;;;17.40;92.50;;;;;;6263571;22;20010;-77
2022/06/20 13:46:21;;;;;;;4.13;2.90;;;17.40;92.70;;;;;;6265465;22;20016;-78
2022/06/20 13:49:17;;;;;;;5.85;3.35;;;17.50;92.70;;;;;;6275292;22;20012;-78
2022/06/20 13:52:19;;;;;;;5.07;4.07;;;17.50;92.40;;;;;;6251257;22;20018;-77
2022/06/20 13:54:48;;;;;;;6.63;4.45;;;17.50;92.20;;;;;;6247679;22;20031;-78
2022/06/20 13:57:22;;;;;;;5.38;4.60;;;17.50;92.30;;;;;;6275294;22;20007;-75
2022/06/20 14:00:17;;;;;;;5.55;4.25;;;17.50;92.10;;;;;;6265464;22;20010;-76
2022/06/20 14:03:12;;;;;;;5.03;4.53;;;17.50;92.20;;;;;;6263880;22;20011;-77
2022/06/20 14:05:39;;;;;;;6.43;4.78;;;17.40;92.70;;;;;;6273186;22;20112;-76
2022/06/20 14:08:22;;;;;;;6.57;5.13;;;17.40;93.00;;;;;;6264963;22;20016;-79
2022/06/20 14:10:58;;;;;;;5.47;4.80;;;17.40;92.90;;;;;;6264083;22;20015;-80
2022/06/20 14:13:28;;;;;;;;;;;17.40;93.00;;;;;;6265993;22;20012;-76
2022/06/20 14:16:16;;;;;;;8.48;5.43;;;17.50;93.40;;;;;;6273845;22;19938;-77
2022/06/20 14:18:59;;;;;;;9.20;5.72;;;17.60;92.90;;;;;;6272301;22;20008;-77